sensor_id;sensor_type;location;lat;lon;timestamp;pressure;altitude;pressure_sealevel;temperature;humidity
40982;BME280;26708;50.304;19.028;2023-11-21T00:01:14;97472.66;;;10.25;68.02
40982;BME280;26708;50.304;19.028;2023-11-21T00:03:18;97479.69;;;10.23;68.14
40982;BME280;26708;50.304;19.028;2023-11-21T00:05:28;97474.53;;;10.19;68.20
40982;BME280;26708;50.304;19.028;2023-11-21T00:07:32;97463.44;;;10.06;68.00
40982;BME280;26708;50.304;19.028;2023-11-21T00:09:34;97486.00;;;10.12;67.90
40982;BME280;26708;50.304;19.028;2023-11-21T00:11:40;97485.16;;;10.11;68.15
40982;BME280;26708;50.304;19.028;2023-11-21T00:13:45;97481.72;;;10.08;67.71
40982;BME280;26708;50.304;19.028;2023-11-21T00:15:49;97456.72;;;9.93;67.71
40982;BME280;26708;50.304;19.028;2023-11-21T00:17:55;97492.28;;;10.02;67.70
40982;BME280;26708;50.304;19.028;2023-11-21T00:19:59;97494.09;;;9.98;67.44
40982;BME280;26708;50.304;19.028;2023-11-21T00:22:10;97490.66;;;9.96;67.71
40982;BME280;26708;50.304;19.028;2023-11-21T00:24:15;97496.81;;;9.92;67.68
40982;BME280;26708;50.304;19.028;2023-11-21T00:26:20;97441.59;;;9.60;67.80
40982;BME280;26708;50.304;19.028;2023-11-21T00:28:35;97497.69;;;9.91;67.93
40982;BME280;26708;50.304;19.028;2023-11-21T00:30:40;97495.91;;;9.93;67.95
40982;BME280;26708;50.304;19.028;2023-11-21T00:32:44;97453.69;;;9.69;67.89
40982;BME280;26708;50.304;19.028;2023-11-21T00:34:49;97451.09;;;9.66;67.82
40982;BME280;26708;50.304;19.028;2023-11-21T00:36:51;97504.56;;;9.97;68.00
40982;BME280;26708;50.304;19.028;2023-11-21T00:38:59;97502.84;;;9.96;68.03
40982;BME280;26708;50.304;19.028;2023-11-21T00:41:05;97502.84;;;9.94;68.13
40982;BME280;26708;50.304;19.028;2023-11-21T00:43:10;97496.81;;;9.91;68.21
40982;BME280;26708;50.304;19.028;2023-11-21T00:45:15;97497.63;;;9.96;68.65
40982;BME280;26708;50.304;19.028;2023-11-21T00:47:20;97425.19;;;9.52;68.49
40982;BME280;26708;50.304;19.028;2023-11-21T00:49:25;97463.00;;;9.82;68.17
40982;BME280;26708;50.304;19.028;2023-11-21T00:51:30;97503.63;;;10.01;68.44
40982;BME280;26708;50.304;19.028;2023-11-21T00:53:34;97499.25;;;10.01;68.37
40982;BME280;26708;50.304;19.028;2023-11-21T00:55:42;97495.78;;;10.01;68.42
40982;BME280;26708;50.304;19.028;2023-11-21T00:57:47;97489.78;;;9.96;68.77
40982;BME280;26708;50.304;19.028;2023-11-21T00:59:51;97465.69;;;9.79;68.74
40982;BME280;26708;50.304;19.028;2023-11-21T01:01:54;97500.06;;;10.05;68.94
40982;BME280;26708;50.304;19.028;2023-11-21T01:04:01;97463.06;;;9.80;68.88
40982;BME280;26708;50.304;19.028;2023-11-21T01:06:07;97500.94;;;10.07;68.79
40982;BME280;26708;50.304;19.028;2023-11-21T01:08:13;97503.53;;;10.07;68.93
40982;BME280;26708;50.304;19.028;2023-11-21T01:10:18;97493.94;;;10.07;69.09
40982;BME280;26708;50.304;19.028;2023-11-21T01:12:25;97449.09;;;9.81;68.91
40982;BME280;26708;50.304;19.028;2023-11-21T01:14:28;97499.13;;;10.09;69.04
40982;BME280;26708;50.304;19.028;2023-11-21T01:16:32;97495.63;;;10.10;69.06
40982;BME280;26708;50.304;19.028;2023-11-21T01:18:38;97488.59;;;10.13;69.19
40982;BME280;26708;50.304;19.028;2023-11-21T01:20:44;97498.97;;;10.18;69.13
40982;BME280;26708;50.304;19.028;2023-11-21T01:22:48;97460.03;;;10.03;68.94
40982;BME280;26708;50.304;19.028;2023-11-21T01:24:55;97494.59;;;10.18;69.00
40982;BME280;26708;50.304;19.028;2023-11-21T01:27:01;97492.03;;;10.15;68.76
40982;BME280;26708;50.304;19.028;2023-11-21T01:29:08;97495.56;;;10.13;68.83
40982;BME280;26708;50.304;19.028;2023-11-21T01:31:12;97492.13;;;10.09;68.57
40982;BME280;26708;50.304;19.028;2023-11-21T01:33:17;97420.63;;;9.63;68.34
40982;BME280;26708;50.304;19.028;2023-11-21T01:35:22;97374.13;;;9.36;68.09
40982;BME280;26708;50.304;19.028;2023-11-21T01:37:28;97496.63;;;10.01;68.13
40982;BME280;26708;50.304;19.028;2023-11-21T01:39:30;97515.00;;;9.98;68.06
40982;BME280;26708;50.304;19.028;2023-11-21T01:41:35;97492.38;;;9.96;68.03
40982;BME280;26708;50.304;19.028;2023-11-21T01:43:40;97498.53;;;9.93;68.04
40982;BME280;26708;50.304;19.028;2023-11-21T01:45:49;97425.25;;;9.49;67.71
40982;BME280;26708;50.304;19.028;2023-11-21T01:47:53;97502.00;;;9.94;67.94
40982;BME280;26708;50.304;19.028;2023-11-21T01:49:59;97501.13;;;9.95;68.05
40982;BME280;26708;50.304;19.028;2023-11-21T01:52:06;97376.41;;;9.06;67.79
40982;BME280;26708;50.304;19.028;2023-11-21T01:54:12;97504.63;;;9.95;67.53
40982;BME280;26708;50.304;19.028;2023-11-21T01:56:18;97505.47;;;9.96;67.98
40982;BME280;26708;50.304;19.028;2023-11-21T01:58:23;97509.78;;;9.97;67.90
40982;BME280;26708;50.304;19.028;2023-11-21T02:00:28;97508.91;;;9.98;68.12
40982;BME280;26708;50.304;19.028;2023-11-21T02:02:33;97501.22;;;9.90;68.08
40982;BME280;26708;50.304;19.028;2023-11-21T02:04:39;97515.88;;;9.99;67.96
40982;BME280;26708;50.304;19.028;2023-11-21T02:06:41;97514.09;;;9.99;67.68
40982;BME280;26708;50.304;19.028;2023-11-21T02:08:45;97517.56;;;10.01;67.68
40982;BME280;26708;50.304;19.028;2023-11-21T02:10:51;97515.81;;;10.02;67.81
40982;BME280;26708;50.304;19.028;2023-11-21T02:12:52;97519.28;;;10.02;67.50
40982;BME280;26708;50.304;19.028;2023-11-21T02:14:57;97514.94;;;10.01;67.10
40982;BME280;26708;50.304;19.028;2023-11-21T02:17:04;97519.34;;;9.98;67.46
40982;BME280;26708;50.304;19.028;2023-11-21T02:19:18;97513.25;;;9.99;67.46
40982;BME280;26708;50.304;19.028;2023-11-21T02:21:24;97505.59;;;9.88;67.34
40982;BME280;26708;50.304;19.028;2023-11-21T02:23:33;97517.63;;;9.98;67.44
40982;BME280;26708;50.304;19.028;2023-11-21T02:25:38;97510.69;;;9.94;67.21
40982;BME280;26708;50.304;19.028;2023-11-21T02:27:43;97497.06;;;9.77;67.30
40982;BME280;26708;50.304;19.028;2023-11-21T02:29:50;97506.50;;;9.86;67.57
40982;BME280;26708;50.304;19.028;2023-11-21T02:31:56;97522.09;;;9.92;67.78
40982;BME280;26708;50.304;19.028;2023-11-21T02:34:00;97518.63;;;9.90;67.56
40982;BME280;26708;50.304;19.028;2023-11-21T02:36:08;97523.03;;;9.88;67.93
40982;BME280;26708;50.304;19.028;2023-11-21T02:38:14;97512.59;;;9.86;67.79
40982;BME280;26708;50.304;19.028;2023-11-21T02:40:21;97515.25;;;9.85;68.01
40982;BME280;26708;50.304;19.028;2023-11-21T02:42:26;97516.09;;;9.85;67.92
40982;BME280;26708;50.304;19.028;2023-11-21T02:44:31;97515.25;;;9.85;67.99
40982;BME280;26708;50.304;19.028;2023-11-21T02:46:37;97496.34;;;9.69;67.94
40982;BME280;26708;50.304;19.028;2023-11-21T02:48:42;97521.38;;;9.81;67.96
40982;BME280;26708;50.304;19.028;2023-11-21T02:50:46;97517.03;;;9.81;67.93
40982;BME280;26708;50.304;19.028;2023-11-21T02:52:52;97507.59;;;9.71;68.07
40982;BME280;26708;50.304;19.028;2023-11-21T02:54:59;97479.13;;;9.56;68.12
40982;BME280;26708;50.304;19.028;2023-11-21T02:57:06;97510.28;;;9.70;67.93
40982;BME280;26708;50.304;19.028;2023-11-21T02:59:11;97518.84;;;9.76;67.98
40982;BME280;26708;50.304;19.028;2023-11-21T03:01:17;97502.50;;;9.62;68.07
40982;BME280;26708;50.304;19.028;2023-11-21T03:03:22;97495.72;;;9.52;67.86
40982;BME280;26708;50.304;19.028;2023-11-21T03:05:27;97489.59;;;9.53;67.87
40982;BME280;26708;50.304;19.028;2023-11-21T03:07:30;97541.56;;;9.73;67.56
40982;BME280;26708;50.304;19.028;2023-11-21T03:09:35;97538.06;;;9.74;67.94
40982;BME280;26708;50.304;19.028;2023-11-21T03:11:39;97498.25;;;9.55;67.89
40982;BME280;26708;50.304;19.028;2023-11-21T03:13:47;97453.38;;;9.32;67.68
40982;BME280;26708;50.304;19.028;2023-11-21T03:15:52;97528.41;;;9.77;67.88
40982;BME280;26708;50.304;19.028;2023-11-21T03:17:56;97525.81;;;9.77;67.45
40982;BME280;26708;50.304;19.028;2023-11-21T03:20:02;97533.66;;;9.77;67.92
40982;BME280;26708;50.304;19.028;2023-11-21T03:22:11;97513.78;;;9.67;67.92
40982;BME280;26708;50.304;19.028;2023-11-21T03:24:16;97525.78;;;9.79;67.66
40982;BME280;26708;50.304;19.028;2023-11-21T03:26:22;97531.88;;;9.79;67.67
40982;BME280;26708;50.304;19.028;2023-11-21T03:28:26;97516.38;;;9.69;67.71
40982;BME280;26708;50.304;19.028;2023-11-21T03:30:34;97540.56;;;9.81;67.59
40982;BME280;26708;50.304;19.028;2023-11-21T03:32:40;97546.59;;;9.85;67.76
40982;BME280;26708;50.304;19.028;2023-11-21T03:34:54;97545.66;;;9.89;67.79
40982;BME280;26708;50.304;19.028;2023-11-21T03:36:59;97543.00;;;9.92;67.59
40982;BME280;26708;50.304;19.028;2023-11-21T03:39:05;97542.09;;;9.93;67.74
40982;BME280;26708;50.304;19.028;2023-11-21T03:41:09;97540.41;;;9.89;67.40
40982;BME280;26708;50.304;19.028;2023-11-21T03:43:14;97548.09;;;9.98;67.29
40982;BME280;26708;50.304;19.028;2023-11-21T03:45:19;97549.88;;;9.97;67.23
40982;BME280;26708;50.304;19.028;2023-11-21T03:47:26;97515.41;;;9.74;67.36
40982;BME280;26708;50.304;19.028;2023-11-21T03:49:31;97543.03;;;9.89;67.22
40982;BME280;26708;50.304;19.028;2023-11-21T03:51:37;97533.41;;;9.91;67.08
40982;BME280;26708;50.304;19.028;2023-11-21T03:53:41;97501.56;;;9.69;67.27
40982;BME280;26708;50.304;19.028;2023-11-21T03:55:46;97537.00;;;9.85;67.46
40982;BME280;26708;50.304;19.028;2023-11-21T03:57:51;97549.88;;;9.97;67.54
40982;BME280;26708;50.304;19.028;2023-11-21T03:59:56;97515.41;;;9.74;67.36
40982;BME280;26708;50.304;19.028;2023-11-21T04:01:57;97533.56;;;9.83;67.51
40982;BME280;26708;50.304;19.028;2023-11-21T04:04:05;97556.91;;;9.94;67.38
40982;BME280;26708;50.304;19.028;2023-11-21T04:06:10;97552.59;;;9.90;67.22
40982;BME280;26708;50.304;19.028;2023-11-21T04:08:14;97532.00;;;9.72;67.14
40982;BME280;26708;50.304;19.028;2023-11-21T04:10:20;97559.66;;;9.85;67.86
40982;BME280;26708;50.304;19.028;2023-11-21T04:12:24;97557.91;;;9.85;67.63
40982;BME280;26708;50.304;19.028;2023-11-21T04:14:26;97567.53;;;9.83;67.63
40982;BME280;26708;50.304;19.028;2023-11-21T04:16:31;97544.22;;;9.70;67.65
40982;BME280;26708;50.304;19.028;2023-11-21T04:18:36;97522.66;;;9.54;67.91
40982;BME280;26708;50.304;19.028;2023-11-21T04:20:44;97534.75;;;9.64;68.13
40982;BME280;26708;50.304;19.028;2023-11-21T04:22:49;97486.47;;;9.30;68.06
40982;BME280;26708;50.304;19.028;2023-11-21T04:24:54;97533.09;;;9.54;68.38
40982;BME280;26708;50.304;19.028;2023-11-21T04:26:59;97565.03;;;9.76;68.38
40982;BME280;26708;50.304;19.028;2023-11-21T04:29:04;97572.91;;;9.74;68.15
40982;BME280;26708;50.304;19.028;2023-11-21T04:31:09;97566.84;;;9.71;68.19
40982;BME280;26708;50.304;19.028;2023-11-21T04:33:13;97567.75;;;9.68;68.33
40982;BME280;26708;50.304;19.028;2023-11-21T04:35:19;97569.53;;;9.66;68.42
40982;BME280;26708;50.304;19.028;2023-11-21T04:37:26;97516.00;;;9.37;68.48
40982;BME280;26708;50.304;19.028;2023-11-21T04:39:30;97572.13;;;9.68;68.81
40982;BME280;26708;50.304;19.028;2023-11-21T04:41:33;97589.47;;;9.72;68.60
40982;BME280;26708;50.304;19.028;2023-11-21T04:43:40;97570.31;;;9.71;68.27
40982;BME280;26708;50.304;19.028;2023-11-21T04:45:44;97567.69;;;9.71;68.67
40982;BME280;26708;50.304;19.028;2023-11-21T04:47:49;97577.28;;;9.72;68.69
40982;BME280;26708;50.304;19.028;2023-11-21T04:49:54;97572.91;;;9.71;68.63
40982;BME280;26708;50.304;19.028;2023-11-21T04:51:56;97569.53;;;9.63;68.47
40982;BME280;26708;50.304;19.028;2023-11-21T04:54:04;97581.72;;;9.67;68.89
40982;BME280;26708;50.304;19.028;2023-11-21T04:56:10;97581.72;;;9.67;68.88
40982;BME280;26708;50.304;19.028;2023-11-21T04:58:14;97580.88;;;9.65;68.85
40982;BME280;26708;50.304;19.028;2023-11-21T05:00:20;97581.72;;;9.67;68.95
40982;BME280;26708;50.304;19.028;2023-11-21T05:02:25;97577.38;;;9.68;68.95
40982;BME280;26708;50.304;19.028;2023-11-21T05:04:29;97584.31;;;9.67;68.67
40982;BME280;26708;50.304;19.028;2023-11-21T05:06:32;97584.38;;;9.64;69.04
40982;BME280;26708;50.304;19.028;2023-11-21T05:08:36;97552.47;;;9.41;69.11
40982;BME280;26708;50.304;19.028;2023-11-21T05:10:43;97590.44;;;9.63;69.29
40982;BME280;26708;50.304;19.028;2023-11-21T05:12:48;97592.16;;;9.67;69.28
40982;BME280;26708;50.304;19.028;2023-11-21T05:14:53;97593.06;;;9.65;69.03
40982;BME280;26708;50.304;19.028;2023-11-21T05:16:59;97589.56;;;9.66;69.11
40982;BME280;26708;50.304;19.028;2023-11-21T05:19:06;97586.94;;;9.66;69.11
40982;BME280;26708;50.304;19.028;2023-11-21T05:21:08;97588.66;;;9.68;69.11
40982;BME280;26708;50.304;19.028;2023-11-21T05:23:12;97593.03;;;9.68;69.10
40982;BME280;26708;50.304;19.028;2023-11-21T05:25:18;97584.34;;;9.63;69.35
40982;BME280;26708;50.304;19.028;2023-11-21T05:27:25;97591.22;;;9.71;69.44
40982;BME280;26708;50.304;19.028;2023-11-21T05:29:29;97576.53;;;9.63;69.30
40982;BME280;26708;50.304;19.028;2023-11-21T05:31:34;97600.72;;;9.77;69.17
40982;BME280;26708;50.304;19.028;2023-11-21T05:33:39;97602.41;;;9.81;69.32
40982;BME280;26708;50.304;19.028;2023-11-21T05:35:44;97581.72;;;9.67;69.03
40982;BME280;26708;50.304;19.028;2023-11-21T05:37:50;97608.41;;;9.87;68.98
40982;BME280;26708;50.304;19.028;2023-11-21T05:39:52;97608.34;;;9.90;68.99
40982;BME280;26708;50.304;19.028;2023-11-21T05:41:57;97610.09;;;9.90;68.97
40982;BME280;26708;50.304;19.028;2023-11-21T05:44:04;97613.56;;;9.92;68.75
40982;BME280;26708;50.304;19.028;2023-11-21T05:46:10;97579.00;;;9.73;68.42
40982;BME280;26708;50.304;19.028;2023-11-21T05:48:14;97603.22;;;9.84;68.65
40982;BME280;26708;50.304;19.028;2023-11-21T05:50:19;97610.06;;;9.93;68.59
40982;BME280;26708;50.304;19.028;2023-11-21T05:52:24;97553.94;;;9.59;68.59
40982;BME280;26708;50.304;19.028;2023-11-21T05:54:26;97619.63;;;9.95;68.75
40982;BME280;26708;50.304;19.028;2023-11-21T05:56:31;97621.34;;;9.96;68.63
40982;BME280;26708;50.304;19.028;2023-11-21T05:58:36;97627.44;;;9.95;68.68
40982;BME280;26708;50.304;19.028;2023-11-21T06:00:43;97623.09;;;9.94;68.40
40982;BME280;26708;50.304;19.028;2023-11-21T06:02:46;97618.72;;;9.95;68.51
40982;BME280;26708;50.304;19.028;2023-11-21T06:04:51;97628.28;;;9.96;68.55
40982;BME280;26708;50.304;19.028;2023-11-21T06:06:55;97634.41;;;9.95;68.61
40982;BME280;26708;50.304;19.028;2023-11-21T06:09:01;97621.50;;;9.84;68.61
40982;BME280;26708;50.304;19.028;2023-11-21T06:11:06;97636.19;;;9.93;68.45
40982;BME280;26708;50.304;19.028;2023-11-21T06:13:12;97632.69;;;9.94;68.51
40982;BME280;26708;50.304;19.028;2023-11-21T06:15:18;97617.28;;;9.76;68.77
40982;BME280;26708;50.304;19.028;2023-11-21T06:17:24;97635.31;;;9.94;68.48
40982;BME280;26708;50.304;19.028;2023-11-21T06:19:29;97613.00;;;9.70;68.52
40982;BME280;26708;50.304;19.028;2023-11-21T06:21:34;97600.91;;;9.62;68.63
40982;BME280;26708;50.304;19.028;2023-11-21T06:23:41;97649.25;;;9.93;68.91
40982;BME280;26708;50.304;19.028;2023-11-21T06:25:45;97650.97;;;9.95;68.83
40982;BME280;26708;50.304;19.028;2023-11-21T06:27:50;97596.56;;;9.65;68.81
40982;BME280;26708;50.304;19.028;2023-11-21T06:29:55;97652.72;;;9.95;68.81
40982;BME280;26708;50.304;19.028;2023-11-21T06:32:00;97645.84;;;9.88;68.86
40982;BME280;26708;50.304;19.028;2023-11-21T06:34:09;97658.78;;;9.97;68.93
40982;BME280;26708;50.304;19.028;2023-11-21T06:36:14;97655.31;;;9.96;68.89
40982;BME280;26708;50.304;19.028;2023-11-21T06:38:19;97660.47;;;9.99;68.83
40982;BME280;26708;50.304;19.028;2023-11-21T06:40:24;97660.50;;;9.98;68.69
40982;BME280;26708;50.304;19.028;2023-11-21T06:42:29;97646.72;;;9.88;68.68
40982;BME280;26708;50.304;19.028;2023-11-21T06:44:31;97670.03;;;10.00;68.73
40982;BME280;26708;50.304;19.028;2023-11-21T06:46:37;97665.72;;;9.99;68.66
40982;BME280;26708;50.304;19.028;2023-11-21T06:48:43;97663.09;;;9.99;68.69
40982;BME280;26708;50.304;19.028;2023-11-21T06:50:50;97660.50;;;9.98;68.43
40982;BME280;26708;50.304;19.028;2023-11-21T06:52:54;97665.72;;;9.98;68.53
40982;BME280;26708;50.304;19.028;2023-11-21T06:54:58;97668.31;;;9.99;68.36
40982;BME280;26708;50.304;19.028;2023-11-21T06:57:03;97663.94;;;10.01;68.39
40982;BME280;26708;50.304;19.028;2023-11-21T06:59:10;97651.91;;;9.91;68.22
40982;BME280;26708;50.304;19.028;2023-11-21T07:01:14;97660.47;;;10.01;68.42
40982;BME280;26708;50.304;19.028;2023-11-21T07:03:19;97662.25;;;9.99;68.12
40982;BME280;26708;50.304;19.028;2023-11-21T07:05:25;97664.00;;;9.97;68.28
40982;BME280;26708;50.304;19.028;2023-11-21T07:07:32;97626.03;;;9.73;68.39
40982;BME280;26708;50.304;19.028;2023-11-21T07:09:38;97660.53;;;9.96;68.30
40982;BME280;26708;50.304;19.028;2023-11-21T07:11:43;97666.63;;;9.97;68.04
40982;BME280;26708;50.304;19.028;2023-11-21T07:13:49;97665.78;;;9.95;68.07
40982;BME280;26708;50.304;19.028;2023-11-21T07:15:53;97675.34;;;9.94;68.17
40982;BME280;26708;50.304;19.028;2023-11-21T07:17:59;97679.75;;;9.92;68.30
40982;BME280;26708;50.304;19.028;2023-11-21T07:20:04;97680.63;;;9.91;67.93
40982;BME280;26708;50.304;19.028;2023-11-21T07:22:07;97680.63;;;9.91;68.44
40982;BME280;26708;50.304;19.028;2023-11-21T07:24:15;97675.47;;;9.88;67.87
40982;BME280;26708;50.304;19.028;2023-11-21T07:26:20;97632.34;;;9.57;68.35
40982;BME280;26708;50.304;19.028;2023-11-21T07:28:25;97664.28;;;9.79;68.11
40982;BME280;26708;50.304;19.028;2023-11-21T07:30:30;97688.47;;;9.91;68.30
40982;BME280;26708;50.304;19.028;2023-11-21T07:32:35;97685.81;;;9.94;68.06
40982;BME280;26708;50.304;19.028;2023-11-21T07:34:41;97683.19;;;9.97;68.21
40982;BME280;26708;50.304;19.028;2023-11-21T07:36:46;97690.06;;;10.01;67.73
40982;BME280;26708;50.304;19.028;2023-11-21T07:38:51;97685.72;;;10.03;67.71
40982;BME280;26708;50.304;19.028;2023-11-21T07:40:58;97685.66;;;10.05;67.67
40982;BME280;26708;50.304;19.028;2023-11-21T07:43:04;97630.41;;;9.71;67.73
40982;BME280;26708;50.304;19.028;2023-11-21T07:45:10;97665.78;;;9.93;67.40
40982;BME280;26708;50.304;19.028;2023-11-21T07:47:16;97686.56;;;10.02;67.53
40982;BME280;26708;50.304;19.028;2023-11-21T07:49:21;97662.34;;;9.93;67.53
40982;BME280;26708;50.304;19.028;2023-11-21T07:51:26;97680.47;;;10.03;67.72
40982;BME280;26708;50.304;19.028;2023-11-21T07:53:30;97679.59;;;10.04;67.68
40982;BME280;26708;50.304;19.028;2023-11-21T07:55:36;97643.38;;;9.79;67.41
40982;BME280;26708;50.304;19.028;2023-11-21T07:57:44;97658.06;;;9.87;67.52
40982;BME280;26708;50.304;19.028;2023-11-21T07:59:49;97689.13;;;10.07;67.38
40982;BME280;26708;50.304;19.028;2023-11-21T08:01:54;97687.38;;;10.06;67.37
40982;BME280;26708;50.304;19.028;2023-11-21T08:03:59;97689.16;;;10.05;67.28
40982;BME280;26708;50.304;19.028;2023-11-21T08:06:06;97690.94;;;10.03;67.20
40982;BME280;26708;50.304;19.028;2023-11-21T08:08:11;97697.94;;;10.00;66.92
40982;BME280;26708;50.304;19.028;2023-11-21T08:10:16;97580.47;;;9.30;66.74
40982;BME280;26708;50.304;19.028;2023-11-21T08:12:24;97683.31;;;9.88;66.74
40982;BME280;26708;50.304;19.028;2023-11-21T08:14:32;97698.09;;;9.89;66.63
40982;BME280;26708;50.304;19.028;2023-11-21T08:16:41;97703.34;;;9.88;66.98
40982;BME280;26708;50.304;19.028;2023-11-21T08:18:47;97699.00;;;9.85;67.05
40982;BME280;26708;50.304;19.028;2023-11-21T08:20:49;97666.25;;;9.59;66.98
40982;BME280;26708;50.304;19.028;2023-11-21T08:22:53;97710.41;;;9.81;66.93
40982;BME280;26708;50.304;19.028;2023-11-21T08:24:59;97657.66;;;9.51;67.02
40982;BME280;26708;50.304;19.028;2023-11-21T08:27:05;97711.28;;;9.80;66.81
40982;BME280;26708;50.304;19.028;2023-11-21T08:29:10;97639.56;;;9.37;67.02
40982;BME280;26708;50.304;19.028;2023-11-21T08:31:24;97684.41;;;9.72;66.93
40982;BME280;26708;50.304;19.028;2023-11-21T08:33:30;97713.78;;;9.88;67.13
40982;BME280;26708;50.304;19.028;2023-11-21T08:35:35;97720.72;;;9.90;67.28
40982;BME280;26708;50.304;19.028;2023-11-21T08:37:40;97713.72;;;9.94;67.15
40982;BME280;26708;50.304;19.028;2023-11-21T08:39:43;97695.56;;;9.85;67.04
40982;BME280;26708;50.304;19.028;2023-11-21T08:41:49;97709.38;;;9.91;67.13
40982;BME280;26708;50.304;19.028;2023-11-21T08:43:55;97707.66;;;9.92;66.75
40982;BME280;26708;50.304;19.028;2023-11-21T08:46:00;97685.16;;;9.80;66.92
40982;BME280;26708;50.304;19.028;2023-11-21T08:48:07;97734.47;;;10.04;66.86
40982;BME280;26708;50.304;19.028;2023-11-21T08:50:16;97718.94;;;9.92;66.55
40982;BME280;26708;50.304;19.028;2023-11-21T08:52:21;97736.22;;;10.02;66.76
40982;BME280;26708;50.304;19.028;2023-11-21T08:54:26;97741.44;;;10.05;67.07
40982;BME280;26708;50.304;19.028;2023-11-21T08:56:31;97737.91;;;10.08;66.87
40982;BME280;26708;50.304;19.028;2023-11-21T08:58:36;97735.25;;;10.09;66.77
40982;BME280;26708;50.304;19.028;2023-11-21T09:00:40;97684.28;;;9.80;66.69
40982;BME280;26708;50.304;19.028;2023-11-21T09:02:44;97733.53;;;10.10;67.00
40982;BME280;26708;50.304;19.028;2023-11-21T09:04:51;97685.16;;;9.80;67.09
40982;BME280;26708;50.304;19.028;2023-11-21T09:06:56;97732.56;;;10.15;66.87
40982;BME280;26708;50.304;19.028;2023-11-21T09:09:02;97646.13;;;9.68;67.47
40982;BME280;26708;50.304;19.028;2023-11-21T09:11:09;97731.53;;;10.27;66.89
40982;BME280;26708;50.304;19.028;2023-11-21T09:13:14;97731.44;;;10.31;66.68
40982;BME280;26708;50.304;19.028;2023-11-21T09:15:20;97735.72;;;10.37;66.75
40982;BME280;26708;50.304;19.028;2023-11-21T09:17:23;97735.63;;;10.44;67.13
40982;BME280;26708;50.304;19.028;2023-11-21T09:19:28;97695.72;;;10.32;66.34
40982;BME280;26708;50.304;19.028;2023-11-21T09:21:33;97732.75;;;10.59;66.12
40982;BME280;26708;50.304;19.028;2023-11-21T09:23:42;97737.84;;;10.68;66.46
40982;BME280;26708;50.304;19.028;2023-11-21T09:25:47;97729.00;;;10.74;66.04
40982;BME280;26708;50.304;19.028;2023-11-21T09:27:54;97712.56;;;10.66;65.12
40982;BME280;26708;50.304;19.028;2023-11-21T09:30:00;97727.94;;;10.85;64.76
40982;BME280;26708;50.304;19.028;2023-11-21T09:32:07;97719.34;;;10.80;64.77
40982;BME280;26708;50.304;19.028;2023-11-21T09:34:13;97701.94;;;10.75;64.85
40982;BME280;26708;50.304;19.028;2023-11-21T09:36:18;97732.16;;;10.95;64.20
40982;BME280;26708;50.304;19.028;2023-11-21T09:38:26;97699.31;;;10.78;63.93
40982;BME280;26708;50.304;19.028;2023-11-21T09:40:31;97728.59;;;11.01;63.93
40982;BME280;26708;50.304;19.028;2023-11-21T09:42:38;97734.66;;;11.03;63.60
40982;BME280;26708;50.304;19.028;2023-11-21T09:44:54;97728.53;;;11.04;63.40
40982;BME280;26708;50.304;19.028;2023-11-21T09:47:04;97728.53;;;11.02;63.56
40982;BME280;26708;50.304;19.028;2023-11-21T09:49:13;97722.38;;;11.06;63.27
40982;BME280;26708;50.304;19.028;2023-11-21T09:51:20;97678.31;;;10.79;63.54
40982;BME280;26708;50.304;19.028;2023-11-21T09:53:35;97728.44;;;11.08;63.15
40982;BME280;26708;50.304;19.028;2023-11-21T09:55:43;97727.53;;;11.09;62.99
40982;BME280;26708;50.304;19.028;2023-11-21T09:57:48;97725.78;;;11.11;62.76
40982;BME280;26708;50.304;19.028;2023-11-21T09:59:52;97679.19;;;10.81;62.15
40982;BME280;26708;50.304;19.028;2023-11-21T10:02:00;97692.97;;;10.91;62.11
40982;BME280;26708;50.304;19.028;2023-11-21T10:04:06;97727.53;;;11.11;61.84
40982;BME280;26708;50.304;19.028;2023-11-21T10:06:13;97720.50;;;11.13;62.33
40982;BME280;26708;50.304;19.028;2023-11-21T10:08:22;97722.19;;;11.15;62.12
40982;BME280;26708;50.304;19.028;2023-11-21T10:10:32;97728.25;;;11.17;62.26
40982;BME280;26708;50.304;19.028;2023-11-21T10:12:38;97712.72;;;11.08;61.95
40982;BME280;26708;50.304;19.028;2023-11-21T10:14:48;97723.91;;;11.18;61.72
40982;BME280;26708;50.304;19.028;2023-11-21T10:16:56;97730.88;;;11.17;62.06
40982;BME280;26708;50.304;19.028;2023-11-21T10:19:03;97733.50;;;11.17;62.03
40982;BME280;26708;50.304;19.028;2023-11-21T10:21:09;97720.47;;;11.14;62.08
40982;BME280;26708;50.304;19.028;2023-11-21T10:23:14;97722.28;;;11.11;61.99
40982;BME280;26708;50.304;19.028;2023-11-21T10:25:20;97717.94;;;11.10;61.95
40982;BME280;26708;50.304;19.028;2023-11-21T10:27:28;97724.94;;;11.09;62.10
40982;BME280;26708;50.304;19.028;2023-11-21T10:29:33;97725.81;;;11.08;62.12
40982;BME280;26708;50.304;19.028;2023-11-21T10:31:38;97726.72;;;11.07;61.96
40982;BME280;26708;50.304;19.028;2023-11-21T10:33:43;97696.53;;;10.88;62.43
40982;BME280;26708;50.304;19.028;2023-11-21T10:35:49;97694.03;;;10.79;61.64
40982;BME280;26708;50.304;19.028;2023-11-21T10:38:00;97730.53;;;10.87;61.51
40982;BME280;26708;50.304;19.028;2023-11-21T10:40:06;97728.03;;;10.81;62.13
40982;BME280;26708;50.304;19.028;2023-11-21T10:42:13;97707.41;;;10.63;61.52
40982;BME280;26708;50.304;19.028;2023-11-21T10:44:21;97730.88;;;10.67;61.20
40982;BME280;26708;50.304;19.028;2023-11-21T10:46:27;97731.81;;;10.63;61.47
40982;BME280;26708;50.304;19.028;2023-11-21T10:48:31;97732.78;;;10.58;61.38
40982;BME280;26708;50.304;19.028;2023-11-21T10:50:38;97697.44;;;10.31;61.66
40982;BME280;26708;50.304;19.028;2023-11-21T10:52:44;97732.84;;;10.55;62.25
40982;BME280;26708;50.304;19.028;2023-11-21T10:54:50;97715.59;;;10.43;61.85
40982;BME280;26708;50.304;19.028;2023-11-21T10:56:57;97736.34;;;10.54;61.91
40982;BME280;26708;50.304;19.028;2023-11-21T10:59:04;97732.03;;;10.50;61.11
40982;BME280;26708;50.304;19.028;2023-11-21T11:01:11;97734.72;;;10.47;61.13
40982;BME280;26708;50.304;19.028;2023-11-21T11:03:18;97663.91;;;10.03;61.42